Time;durP1;ratioP1;P1;durP2;ratioP2;P2;SDS_P1;SDS_P2;PMS_P1;PMS_P2;Temp;Humidity;BMP_temperature;BMP_pressure;BME280_temperature;BME280_humidity;BME280_pressure;Samples;Min_cycle;Max_cycle;Signal;HPM_P1;HPM_P2
2022/03/18 00:02:10;;;;;;;77.05;44.08;;;;;;;;;;5055211;28;20032;-70
2022/03/18 00:04:36;;;;;;;79.43;45.95;;;;;;;;;;5061162;28;20040;-69
2022/03/18 00:07:01;;;;;;;76.20;44.58;;;;;;;;;;5054048;28;20032;-72
2022/03/18 00:09:27;;;;;;;77.28;43.65;;;;;;;;;;5054929;28;20021;-72
2022/03/18 00:11:52;;;;;;;78.85;46.22;;;;;;;;;;5048474;28;20462;-69
2022/03/18 00:14:19;;;;;;;77.43;44.58;;;;;;;;;;5053945;28;20025;-71
2022/03/18 00:16:45;;;;;;;81.80;43.60;;;;;;;;;;5055492;28;20056;-71
2022/03/18 00:19:10;;;;;;;77.53;44.72;;;;;;;;;;5048678;28;20654;-71
2022/03/18 00:21:35;;;;;;;79.18;43.78;;;;;;;;;;5054498;28;20039;-70
2022/03/18 00:24:01;;;;;;;81.97;45.25;;;;;;;;;;5037542;28;20033;-70
2022/03/18 00:26:27;;;;;;;73.43;42.42;;;;;;;;;;5051219;28;20018;-68
2022/03/18 00:28:52;;;;;;;86.70;46.97;;;;;;;;;;5060686;28;20527;-71
2022/03/18 00:31:17;;;;;;;80.70;46.08;;;;;;;;;;5046751;28;20492;-69
2022/03/18 00:33:43;;;;;;;77.47;45.45;;;;;;;;;;5036954;28;20040;-69
2022/03/18 00:36:08;;;;;;;75.93;45.03;;;;;;;;;;5057623;28;20380;-71
2022/03/18 00:38:34;;;;;;;82.72;45.80;;;;;;;;;;5058164;28;20549;-70
2022/03/18 00:40:59;;;;;;;82.57;46.97;;;;;;;;;;5059911;28;20025;-70
2022/03/18 00:43:24;;;;;;;85.90;46.17;;;;;;;;;;5039455;28;20028;-69
2022/03/18 00:45:50;;;;;;;89.07;46.33;;;;;;;;;;5053819;28;20021;-70
2022/03/18 00:53:43;;;;;;;82.10;46.50;;;;;;;;;;5052889;28;20036;-71
2022/03/18 00:56:08;;;;;;;84.75;46.40;;;;;;;;;;5036594;28;20119;-70
2022/03/18 00:58:34;;;;;;;83.50;46.60;;;;;;;;;;5052182;28;20039;-70
2022/03/18 01:00:59;;;;;;;83.28;46.70;;;;;;;;;;5055457;28;20032;-70
2022/03/18 01:03:24;;;;;;;84.18;48.20;;;;;;;;;;5058940;28;20566;-71
2022/03/18 01:05:50;;;;;;;80.35;46.95;;;;;;;;;;5050111;28;20040;-70
2022/03/18 01:08:15;;;;;;;89.45;47.58;;;;;;;;;;5055542;28;20021;-70
2022/03/18 01:10:40;;;;;;;80.68;46.72;;;;;;;;;;5053191;28;20031;-70
2022/03/18 01:13:06;;;;;;;91.60;46.80;;;;;;;;;;5055144;28;20580;-69
2022/03/18 01:15:31;;;;;;;89.47;46.42;;;;;;;;;;5050869;28;20395;-70
2022/03/18 01:17:56;;;;;;;80.80;45.00;;;;;;;;;;5035875;28;20483;-71
2022/03/18 01:20:22;;;;;;;80.72;45.03;;;;;;;;;;5058977;28;20053;-70
2022/03/18 01:22:47;;;;;;;84.57;47.28;;;;;;;;;;5050361;28;20040;-70
2022/03/18 01:25:12;;;;;;;80.43;44.63;;;;;;;;;;5058447;28;20024;-70
2022/03/18 01:27:38;;;;;;;77.45;44.35;;;;;;;;;;5048763;28;20029;-70
2022/03/18 01:30:03;;;;;;;83.57;43.63;;;;;;;;;;5046587;28;20079;-69
2022/03/18 01:32:29;;;;;;;79.72;43.67;;;;;;;;;;5056990;28;20463;-69
2022/03/18 01:34:54;;;;;;;75.40;43.22;;;;;;;;;;5055770;28;20021;-70
2022/03/18 01:37:19;;;;;;;81.10;44.83;;;;;;;;;;5057166;28;20110;-70
2022/03/18 01:39:45;;;;;;;77.10;44.33;;;;;;;;;;5058844;28;20017;-70
2022/03/18 01:42:10;;;;;;;81.03;43.75;;;;;;;;;;5035597;28;20058;-70
2022/03/18 01:44:42;;;;;;;83.43;45.20;;;;;;;;;;5049931;28;20044;-70
2022/03/18 01:47:08;;;;;;;84.47;45.42;;;;;;;;;;5051066;28;20035;-70
2022/03/18 01:49:34;;;;;;;88.82;44.78;;;;;;;;;;5050623;28;20084;-71
2022/03/18 01:51:59;;;;;;;83.10;44.78;;;;;;;;;;5053094;28;20096;-71
2022/03/18 01:57:09;;;;;;;85.32;44.35;;;;;;;;;;5053611;28;20028;-70
2022/03/18 01:59:34;;;;;;;82.78;45.47;;;;;;;;;;5052281;28;20025;-71
2022/03/18 02:01:59;;;;;;;88.72;46.05;;;;;;;;;;5055322;28;20086;-71
2022/03/18 02:04:25;;;;;;;82.80;43.33;;;;;;;;;;5047133;28;20029;-71
2022/03/18 02:06:50;;;;;;;93.10;46.58;;;;;;;;;;5057017;28;20029;-71
2022/03/18 02:09:16;;;;;;;85.95;45.85;;;;;;;;;;5054247;28;20037;-69
2022/03/18 02:11:41;;;;;;;85.28;46.78;;;;;;;;;;5048536;28;20024;-71
2022/03/18 02:14:06;;;;;;;86.72;44.78;;;;;;;;;;5036278;28;20056;-70
2022/03/18 02:16:32;;;;;;;91.38;46.17;;;;;;;;;;5037516;28;20051;-68
2022/03/18 02:18:57;;;;;;;90.20;46.08;;;;;;;;;;5048818;28;20020;-72
2022/03/18 02:21:22;;;;;;;83.68;46.15;;;;;;;;;;5049669;28;20017;-71
2022/03/18 02:23:48;;;;;;;88.57;47.33;;;;;;;;;;5037421;28;20188;-70
2022/03/18 02:26:15;;;;;;;84.05;45.78;;;;;;;;;;5053117;28;20021;-71
2022/03/18 02:28:41;;;;;;;93.88;48.22;;;;;;;;;;5055470;28;20028;-70
2022/03/18 02:31:06;;;;;;;92.50;48.08;;;;;;;;;;5029258;28;20607;-70
2022/03/18 02:33:31;;;;;;;90.22;48.00;;;;;;;;;;5054937;28;20030;-70
2022/03/18 02:35:57;;;;;;;105.10;49.88;;;;;;;;;;5046836;28;20086;-69
2022/03/18 02:38:23;;;;;;;98.95;50.13;;;;;;;;;;5055606;28;20029;-71
2022/03/18 02:40:48;;;;;;;111.18;52.60;;;;;;;;;;5051912;28;20032;-71
2022/03/18 02:43:13;;;;;;;104.25;49.58;;;;;;;;;;5055105;28;20029;-71
2022/03/18 02:45:39;;;;;;;97.65;49.88;;;;;;;;;;5056115;28;20030;-71
2022/03/18 02:48:06;;;;;;;93.25;48.42;;;;;;;;;;5055234;28;20024;-71
2022/03/18 02:50:31;;;;;;;98.40;49.97;;;;;;;;;;5048238;28;20021;-71
2022/03/18 02:52:56;;;;;;;94.53;47.40;;;;;;;;;;5051859;28;20157;-70
2022/03/18 02:55:22;;;;;;;97.13;50.15;;;;;;;;;;5053344;28;20088;-71
2022/03/18 02:57:47;;;;;;;91.05;47.72;;;;;;;;;;5050936;28;20021;-70
2022/03/18 03:00:13;;;;;;;82.70;45.20;;;;;;;;;;5053053;28;20434;-69
2022/03/18 03:02:38;;;;;;;84.60;47.20;;;;;;;;;;5052662;28;20032;-71
2022/03/18 03:08:00;;;;;;;82.25;46.42;;;;;;;;;;5049569;28;20086;-70
2022/03/18 03:10:29;;;;;;;89.38;46.88;;;;;;;;;;5056124;28;20036;-68
2022/03/18 03:12:55;;;;;;;87.80;45.72;;;;;;;;;;5053259;28;20099;-70
2022/03/18 03:15:21;;;;;;;89.18;46.90;;;;;;;;;;5050570;28;20053;-70
2022/03/18 03:17:46;;;;;;;90.63;46.38;;;;;;;;;;5050246;28;20055;-70
2022/03/18 03:20:12;;;;;;;92.22;47.67;;;;;;;;;;5050048;28;20025;-70
2022/03/18 03:22:37;;;;;;;80.65;45.33;;;;;;;;;;5053620;28;20055;-70
2022/03/18 03:25:02;;;;;;;81.53;44.92;;;;;;;;;;5046636;28;20028;-70
2022/03/18 03:27:31;;;;;;;85.28;45.88;;;;;;;;;;5052614;28;20269;-70
2022/03/18 03:30:00;;;;;;;83.28;45.72;;;;;;;;;;5050412;28;20059;-70
2022/03/18 03:32:26;;;;;;;83.18;44.20;;;;;;;;;;5030591;28;20510;-69
2022/03/18 03:34:52;;;;;;;88.60;44.80;;;;;;;;;;5035819;28;20483;-70
2022/03/18 03:37:17;;;;;;;82.07;44.42;;;;;;;;;;5047499;28;20033;-70
2022/03/18 03:39:42;;;;;;;80.65;45.55;;;;;;;;;;5042795;28;20052;-70
2022/03/18 03:42:08;;;;;;;82.60;45.28;;;;;;;;;;5057874;28;20628;-70
2022/03/18 03:44:33;;;;;;;78.97;43.70;;;;;;;;;;5052636;28;20530;-70
2022/03/18 03:46:58;;;;;;;82.43;43.75;;;;;;;;;;5042118;28;20168;-70
2022/03/18 03:49:24;;;;;;;83.00;43.60;;;;;;;;;;5052025;28;20057;-70
2022/03/18 03:51:49;;;;;;;81.03;43.05;;;;;;;;;;5053692;28;20056;-70
2022/03/18 03:54:14;;;;;;;78.45;42.30;;;;;;;;;;5054746;28;20057;-69
2022/03/18 03:56:39;;;;;;;86.70;45.10;;;;;;;;;;5053531;28;20067;-72
2022/03/18 03:59:05;;;;;;;77.43;42.95;;;;;;;;;;5058830;28;20036;-70
2022/03/18 04:01:30;;;;;;;82.38;44.30;;;;;;;;;;5050879;28;20090;-70
2022/03/18 04:03:55;;;;;;;84.05;44.95;;;;;;;;;;5061640;28;20604;-70
2022/03/18 04:06:21;;;;;;;82.07;42.95;;;;;;;;;;5053820;28;20505;-69
2022/03/18 04:08:47;;;;;;;83.53;44.20;;;;;;;;;;5053364;28;20094;-70
2022/03/18 04:11:13;;;;;;;80.03;44.63;;;;;;;;;;5049485;28;20487;-70
2022/03/18 04:13:38;;;;;;;78.20;43.47;;;;;;;;;;5049640;28;20053;-70
2022/03/18 04:16:04;;;;;;;81.40;44.70;;;;;;;;;;5049097;28;20491;-71
2022/03/18 04:18:30;;;;;;;80.10;43.67;;;;;;;;;;5055580;28;20021;-70
2022/03/18 04:20:56;;;;;;;81.60;44.55;;;;;;;;;;5059331;28;20533;-70
2022/03/18 04:23:21;;;;;;;84.05;44.20;;;;;;;;;;5056959;28;20403;-71
2022/03/18 04:25:46;;;;;;;83.00;45.33;;;;;;;;;;5054108;28;20031;-70
2022/03/18 04:28:12;;;;;;;83.93;43.67;;;;;;;;;;5053727;28;20368;-70
2022/03/18 04:30:37;;;;;;;86.25;46.10;;;;;;;;;;5053959;28;20037;-70
2022/03/18 04:33:02;;;;;;;95.50;49.15;;;;;;;;;;5055417;28;20039;-70
2022/03/18 04:35:31;;;;;;;92.38;46.03;;;;;;;;;;5059407;28;20020;-70
2022/03/18 04:37:57;;;;;;;79.53;44.92;;;;;;;;;;5048864;28;20467;-70
2022/03/18 04:40:22;;;;;;;87.05;47.83;;;;;;;;;;5054103;28;20036;-69
2022/03/18 04:42:47;;;;;;;95.13;49.63;;;;;;;;;;5052209;28;20037;-70
2022/03/18 04:45:13;;;;;;;92.15;48.72;;;;;;;;;;5050234;28;20020;-71
2022/03/18 04:47:38;;;;;;;96.70;49.50;;;;;;;;;;5052668;28;20081;-71
2022/03/18 04:50:04;;;;;;;99.85;49.90;;;;;;;;;;5052724;28;20020;-70
2022/03/18 04:52:29;;;;;;;88.82;47.47;;;;;;;;;;5061971;28;20463;-71
2022/03/18 04:54:55;;;;;;;95.03;49.15;;;;;;;;;;5049797;28;20100;-70
2022/03/18 04:57:20;;;;;;;92.22;49.75;;;;;;;;;;5054249;28;20048;-70
2022/03/18 04:59:46;;;;;;;98.68;51.67;;;;;;;;;;5052698;28;20096;-70
2022/03/18 05:02:11;;;;;;;94.32;47.55;;;;;;;;;;5042522;28;20045;-71
2022/03/18 05:04:37;;;;;;;100.25;51.25;;;;;;;;;;5039816;28;20112;-70
2022/03/18 05:07:04;;;;;;;87.50;48.42;;;;;;;;;;5042062;28;20021;-71
2022/03/18 05:09:29;;;;;;;93.50;48.13;;;;;;;;;;5041470;28;20104;-70
2022/03/18 05:11:54;;;;;;;92.70;50.33;;;;;;;;;;5042413;28;20163;-71
2022/03/18 05:14:20;;;;;;;96.97;49.80;;;;;;;;;;5041703;28;20127;-71
2022/03/18 05:16:45;;;;;;;92.05;50.13;;;;;;;;;;5041470;28;21045;-71
2022/03/18 05:19:10;;;;;;;98.85;51.78;;;;;;;;;;5041099;28;20071;-71
2022/03/18 05:21:36;;;;;;;98.90;53.17;;;;;;;;;;5043062;28;20057;-70
2022/03/18 05:24:02;;;;;;;95.28;50.45;;;;;;;;;;5039977;28;20018;-72
2022/03/18 05:26:27;;;;;;;101.22;51.75;;;;;;;;;;5040147;28;20028;-73
2022/03/18 05:28:53;;;;;;;98.88;51.10;;;;;;;;;;5041493;28;20112;-72
2022/03/18 05:31:18;;;;;;;97.40;51.50;;;;;;;;;;5039065;28;20033;-72
2022/03/18 05:33:44;;;;;;;101.40;51.65;;;;;;;;;;5041558;28;20063;-72
2022/03/18 05:36:09;;;;;;;91.80;47.88;;;;;;;;;;5040549;28;20033;-72
2022/03/18 05:38:34;;;;;;;93.57;48.20;;;;;;;;;;5042118;28;20075;-72
2022/03/18 05:40:59;;;;;;;86.68;46.33;;;;;;;;;;5040187;28;20025;-71
2022/03/18 05:43:25;;;;;;;99.30;49.20;;;;;;;;;;5040499;28;20025;-71
2022/03/18 05:45:50;;;;;;;94.07;49.08;;;;;;;;;;5040549;28;20040;-71
2022/03/18 05:48:15;;;;;;;93.20;48.25;;;;;;;;;;5039570;28;20111;-71
2022/03/18 05:50:41;;;;;;;92.55;47.58;;;;;;;;;;5042842;28;21035;-72
2022/03/18 05:53:06;;;;;;;92.82;47.15;;;;;;;;;;5040159;28;20479;-71
2022/03/18 05:58:16;;;;;;;88.88;47.58;;;;;;;;;;5041085;28;20032;-72
2022/03/18 06:00:43;;;;;;;96.80;49.42;;;;;;;;;;5040609;28;20028;-72
2022/03/18 06:03:08;;;;;;;85.38;46.70;;;;;;;;;;5040040;28;20451;-71
2022/03/18 06:05:33;;;;;;;92.15;49.65;;;;;;;;;;5046212;28;20064;-72
2022/03/18 06:11:48;;;;;;;86.45;48.47;;;;;;;;;;5041560;28;20533;-71
2022/03/18 06:13:28;;;;;;;95.82;49.17;;;;;;;;;;5040011;28;20391;-71
2022/03/18 06:15:53;;;;;;;100.68;52.17;;;;;;;;;;5039457;28;20036;-72
2022/03/18 06:18:19;;;;;;;95.20;50.28;;;;;;;;;;5041264;28;20025;-72
2022/03/18 06:20:49;;;;;;;90.25;48.65;;;;;;;;;;5039982;28;20352;-72
2022/03/18 06:23:15;;;;;;;86.22;47.90;;;;;;;;;;5039024;28;20289;-72
2022/03/18 06:25:41;;;;;;;96.55;48.47;;;;;;;;;;5039840;28;20108;-71
2022/03/18 06:28:06;;;;;;;92.75;48.60;;;;;;;;;;5038868;28;20025;-71
2022/03/18 06:30:32;;;;;;;100.95;49.30;;;;;;;;;;5039599;28;20040;-71
2022/03/18 06:32:57;;;;;;;85.20;47.00;;;;;;;;;;5040294;28;20021;-71
2022/03/18 06:35:22;;;;;;;87.95;47.63;;;;;;;;;;5038834;28;20064;-71
2022/03/18 06:37:48;;;;;;;89.18;47.80;;;;;;;;;;5036027;28;20113;-70
2022/03/18 06:40:13;;;;;;;85.38;45.17;;;;;;;;;;5035742;28;20080;-72
2022/03/18 06:42:38;;;;;;;85.80;46.70;;;;;;;;;;5039390;28;20069;-71
2022/03/18 06:45:04;;;;;;;89.18;47.38;;;;;;;;;;5038494;28;20056;-71
2022/03/18 06:47:29;;;;;;;81.97;45.75;;;;;;;;;;5039368;28;20495;-72
2022/03/18 06:49:55;;;;;;;88.43;47.33;;;;;;;;;;5037947;28;20098;-71
2022/03/18 06:52:20;;;;;;;83.25;46.42;;;;;;;;;;5039148;28;20037;-72
2022/03/18 06:54:45;;;;;;;82.10;45.75;;;;;;;;;;5039388;28;20087;-71
2022/03/18 06:57:11;;;;;;;78.13;45.15;;;;;;;;;;5039978;28;20032;-71
2022/03/18 06:59:36;;;;;;;83.90;45.63;;;;;;;;;;5038577;28;20061;-70
2022/03/18 07:02:01;;;;;;;79.75;43.85;;;;;;;;;;5036214;28;20108;-72
2022/03/18 07:04:27;;;;;;;82.88;42.95;;;;;;;;;;5038399;28;20036;-71
2022/03/18 07:06:52;;;;;;;71.57;42.55;;;;;;;;;;5039709;28;20108;-71
2022/03/18 07:09:17;;;;;;;72.15;42.88;;;;;;;;;;5039872;28;20512;-72
2022/03/18 07:11:43;;;;;;;72.32;41.97;;;;;;;;;;5040623;28;20041;-71
2022/03/18 07:14:08;;;;;;;73.65;43.30;;;;;;;;;;5040665;28;20029;-71
2022/03/18 07:19:17;;;;;;;71.63;41.93;;;;;;;;;;5040599;28;20041;-70
2022/03/18 07:21:42;;;;;;;74.22;42.33;;;;;;;;;;5041154;28;20041;-72
2022/03/18 07:24:08;;;;;;;76.03;41.67;;;;;;;;;;5043165;28;20033;-71
2022/03/18 07:26:33;;;;;;;76.82;40.13;;;;;;;;;;5043986;28;20033;-71
2022/03/18 07:29:03;;;;;;;80.88;42.05;;;;;;;;;;5043300;28;20039;-71
2022/03/18 07:31:29;;;;;;;78.32;42.88;;;;;;;;;;5041185;28;20518;-71
2022/03/18 07:33:54;;;;;;;67.25;40.00;;;;;;;;;;5043641;28;20025;-71
2022/03/18 07:36:19;;;;;;;62.80;36.90;;;;;;;;;;5042432;28;20074;-71
2022/03/18 07:38:45;;;;;;;60.35;37.00;;;;;;;;;;5043050;28;20024;-70
2022/03/18 07:41:11;;;;;;;63.38;37.63;;;;;;;;;;5041259;28;20483;-71
2022/03/18 07:43:37;;;;;;;61.80;37.13;;;;;;;;;;5042654;28;20037;-72
2022/03/18 07:46:02;;;;;;;62.92;36.38;;;;;;;;;;5042746;28;20491;-71
2022/03/18 07:48:27;;;;;;;57.45;34.42;;;;;;;;;;5042066;28;20029;-71
2022/03/18 07:50:53;;;;;;;58.25;35.53;;;;;;;;;;5040995;28;20032;-70
2022/03/18 07:53:18;;;;;;;56.58;34.65;;;;;;;;;;5040558;28;20284;-70
2022/03/18 07:55:43;;;;;;;55.13;33.95;;;;;;;;;;5039462;28;20036;-70
2022/03/18 07:58:09;;;;;;;54.15;33.08;;;;;;;;;;5039505;28;20039;-71
2022/03/18 08:00:35;;;;;;;51.50;32.22;;;;;;;;;;5043236;28;20041;-71
2022/03/18 08:03:00;;;;;;;49.03;31.35;;;;;;;;;;5045159;28;20032;-72
2022/03/18 08:05:25;;;;;;;52.70;31.75;;;;;;;;;;5044134;28;20400;-71
2022/03/18 08:07:52;;;;;;;50.72;32.22;;;;;;;;;;5043172;28;20534;-71
2022/03/18 08:10:18;;;;;;;48.45;30.83;;;;;;;;;;5042060;28;20496;-71
2022/03/18 08:12:43;;;;;;;49.28;29.77;;;;;;;;;;5043892;28;20062;-71
2022/03/18 08:15:10;;;;;;;50.70;29.63;;;;;;;;;;5043814;28;20036;-71
2022/03/18 08:17:39;;;;;;;58.10;31.67;;;;;;;;;;5041764;28;20033;-71
2022/03/18 08:20:06;;;;;;;64.45;31.73;;;;;;;;;;5040926;28;20025;-70
2022/03/18 08:22:32;;;;;;;52.67;31.92;;;;;;;;;;5041059;28;20029;-71
2022/03/18 08:24:57;;;;;;;56.58;32.35;;;;;;;;;;5044083;28;20021;-71
2022/03/18 08:27:22;;;;;;;54.72;32.63;;;;;;;;;;5044059;28;20082;-71
2022/03/18 08:29:49;;;;;;;48.92;30.30;;;;;;;;;;5044304;28;20025;-70
2022/03/18 08:32:15;;;;;;;54.50;31.92;;;;;;;;;;5041684;28;20119;-72
2022/03/18 08:34:41;;;;;;;48.95;31.08;;;;;;;;;;5041961;28;20060;-71
2022/03/18 08:37:06;;;;;;;50.80;29.60;;;;;;;;;;5038777;28;20562;-71
2022/03/18 08:39:39;;;;;;;51.33;31.83;;;;;;;;;;5042918;28;20043;-71
2022/03/18 08:42:05;;;;;;;55.50;31.67;;;;;;;;;;5043865;28;20025;-71
2022/03/18 08:44:30;;;;;;;56.28;31.30;;;;;;;;;;5041473;28;20421;-71
2022/03/18 08:46:57;;;;;;;50.50;31.15;;;;;;;;;;5044637;28;20036;-71
2022/03/18 08:49:22;;;;;;;53.40;32.17;;;;;;;;;;5042459;28;20044;-72
2022/03/18 08:51:47;;;;;;;49.70;30.23;;;;;;;;;;5041576;28;20037;-70
2022/03/18 08:54:13;;;;;;;48.47;31.15;;;;;;;;;;5041405;28;20551;-70
2022/03/18 08:56:38;;;;;;;47.20;30.08;;;;;;;;;;5041302;28;20800;-70
2022/03/18 08:59:06;;;;;;;48.15;30.80;;;;;;;;;;5044463;28;20737;-70
2022/03/18 09:01:34;;;;;;;49.97;30.33;;;;;;;;;;5041334;28;20127;-70
2022/03/18 09:04:00;;;;;;;47.65;30.75;;;;;;;;;;5041416;28;20025;-71
2022/03/18 09:06:25;;;;;;;50.83;30.95;;;;;;;;;;5042409;28;20028;-70
2022/03/18 09:08:50;;;;;;;52.55;30.75;;;;;;;;;;5041929;28;20748;-71
2022/03/18 09:11:16;;;;;;;48.38;29.65;;;;;;;;;;5043806;28;20119;-71
2022/03/18 09:13:41;;;;;;;49.67;29.52;;;;;;;;;;5043395;28;20499;-71
2022/03/18 09:16:06;;;;;;;42.97;27.65;;;;;;;;;;5042863;28;20033;-70
2022/03/18 09:18:32;;;;;;;45.35;28.65;;;;;;;;;;5039924;28;20040;-71
2022/03/18 09:20:57;;;;;;;45.70;28.27;;;;;;;;;;5040355;28;20021;-71
2022/03/18 09:23:22;;;;;;;45.17;28.65;;;;;;;;;;5038350;28;20369;-70
2022/03/18 09:25:48;;;;;;;47.20;29.33;;;;;;;;;;5040818;28;20076;-70
2022/03/18 09:28:13;;;;;;;48.95;29.27;;;;;;;;;;5039569;28;20025;-71
2022/03/18 09:30:39;;;;;;;46.10;29.83;;;;;;;;;;5040107;28;20059;-71
2022/03/18 09:33:04;;;;;;;45.70;29.00;;;;;;;;;;5043118;28;20025;-73
2022/03/18 09:35:30;;;;;;;48.85;29.08;;;;;;;;;;5038569;28;20037;-69
2022/03/18 09:37:55;;;;;;;55.00;29.83;;;;;;;;;;5041279;28;20091;-71
2022/03/18 09:40:20;;;;;;;46.90;29.08;;;;;;;;;;5041151;28;20432;-71
2022/03/18 09:43:00;;;;;;;45.15;29.40;;;;;;;;;;5040603;28;20016;-70
2022/03/18 09:45:30;;;;;;;46.80;29.95;;;;;;;;;;5038560;28;20032;-71
2022/03/18 09:47:55;;;;;;;46.70;30.27;;;;;;;;;;5042704;28;20082;-71
2022/03/18 09:50:21;;;;;;;47.65;29.38;;;;;;;;;;5042787;28;20100;-71
2022/03/18 09:52:47;;;;;;;47.88;28.40;;;;;;;;;;5043159;28;20185;-71
2022/03/18 09:55:12;;;;;;;51.80;30.25;;;;;;;;;;5042015;28;20027;-69
2022/03/18 09:57:37;;;;;;;50.28;30.38;;;;;;;;;;5037095;28;20694;-71
2022/03/18 10:00:03;;;;;;;44.00;28.70;;;;;;;;;;5041676;28;20756;-70
2022/03/18 10:02:29;;;;;;;45.00;29.65;;;;;;;;;;5038579;28;20072;-71
2022/03/18 10:04:59;;;;;;;45.30;28.80;;;;;;;;;;5042748;28;20025;-72
2022/03/18 10:07:25;;;;;;;48.95;30.60;;;;;;;;;;5039282;28;20053;-70
2022/03/18 10:10:16;;;;;;;46.67;28.67;;;;;;;;;;5039008;28;20067;-73
2022/03/18 10:12:45;;;;;;;44.35;28.08;;;;;;;;;;5041204;28;20531;-70
2022/03/18 10:15:15;;;;;;;45.35;29.02;;;;;;;;;;5038489;28;20028;-71
2022/03/18 10:17:51;;;;;;;45.17;29.23;;;;;;;;;;5040943;28;20024;-72
2022/03/18 10:20:24;;;;;;;48.53;28.85;;;;;;;;;;5043894;28;20048;-71
2022/03/18 10:22:49;;;;;;;44.75;28.55;;;;;;;;;;5040755;28;20056;-70
2022/03/18 10:25:37;;;;;;;48.00;29.48;;;;;;;;;;5022711;28;20902;-70
2022/03/18 10:28:04;;;;;;;46.13;28.88;;;;;;;;;;5038727;28;20033;-69
2022/03/18 10:30:31;;;;;;;50.17;28.60;;;;;;;;;;5040011;28;20040;-72
2022/03/18 10:32:56;;;;;;;44.30;28.20;;;;;;;;;;5043836;28;20070;-72
2022/03/18 10:38:33;;;;;;;47.03;27.13;;;;;;;;;;5041661;28;20054;-71
2022/03/18 10:40:59;;;;;;;37.95;26.40;;;;;;;;;;5023779;28;20036;-73
2022/03/18 10:43:25;;;;;;;44.50;28.13;;;;;;;;;;5023367;28;20021;-73
2022/03/18 10:46:04;;;;;;;38.38;26.45;;;;;;;;;;5040233;28;20025;-70
2022/03/18 10:48:30;;;;;;;44.97;25.83;;;;;;;;;;5040735;28;20029;-71
2022/03/18 10:51:05;;;;;;;35.95;24.55;;;;;;;;;;5036829;28;20057;-73
2022/03/18 10:53:32;;;;;;;36.47;24.65;;;;;;;;;;5056439;28;20665;-72
2022/03/18 10:55:59;;;;;;;42.78;25.02;;;;;;;;;;5040952;28;20434;-70
2022/03/18 10:58:24;;;;;;;39.88;24.13;;;;;;;;;;5043124;28;20036;-70
2022/03/18 11:00:50;;;;;;;43.45;24.88;;;;;;;;;;5041973;28;20052;-71
2022/03/18 11:03:16;;;;;;;36.38;24.40;;;;;;;;;;5045167;28;20632;-73
2022/03/18 11:05:41;;;;;;;37.40;23.80;;;;;;;;;;5042651;28;20029;-71
2022/03/18 11:08:10;;;;;;;43.50;24.83;;;;;;;;;;5040756;28;20029;-71
2022/03/18 11:13:23;;;;;;;34.88;23.15;;;;;;;;;;5029406;28;20044;-72
2022/03/18 11:15:49;;;;;;;33.90;21.10;;;;;;;;;;5044927;28;20595;-72
2022/03/18 11:18:15;;;;;;;39.80;21.60;;;;;;;;;;5044273;28;20104;-71
2022/03/18 11:20:45;;;;;;;36.63;19.60;;;;;;;;;;5042941;28;20435;-71
2022/03/18 11:23:17;;;;;;;33.90;21.42;;;;;;;;;;5044959;28;20467;-71
2022/03/18 11:25:44;;;;;;;32.40;19.88;;;;;;;;;;5044303;28;20028;-71
2022/03/18 11:28:14;;;;;;;32.97;19.35;;;;;;;;;;5042038;28;20475;-72
2022/03/18 11:30:41;;;;;;;30.60;20.23;;;;;;;;;;5042250;28;20042;-71
2022/03/18 11:33:09;;;;;;;28.10;18.98;;;;;;;;;;5043726;28;20025;-72
2022/03/18 11:35:50;;;;;;;26.85;17.95;;;;;;;;;;5044499;28;20033;-70
2022/03/18 11:38:23;;;;;;;35.40;20.98;;;;;;;;;;5043705;28;20030;-70
2022/03/18 11:40:57;;;;;;;29.50;17.55;;;;;;;;;;5044206;28;20467;-72
2022/03/18 11:43:41;;;;;;;24.63;17.05;;;;;;;;;;5043450;28;20112;-72
2022/03/18 11:46:13;;;;;;;28.67;17.77;;;;;;;;;;5043940;28;20079;-72
2022/03/18 11:48:55;;;;;;;27.92;16.95;;;;;;;;;;5045385;28;20037;-71
2022/03/18 11:51:34;;;;;;;29.15;17.90;;;;;;;;;;5043390;28;20111;-71
2022/03/18 11:54:10;;;;;;;26.10;17.60;;;;;;;;;;5041711;28;20041;-72
2022/03/18 11:56:39;;;;;;;26.67;17.90;;;;;;;;;;5014949;28;20060;-72
2022/03/18 11:59:32;;;;;;;27.25;18.75;;;;;;;;;;5044757;28;20506;-72
2022/03/18 12:02:03;;;;;;;29.95;19.38;;;;;;;;;;5043745;28;20047;-71
2022/03/18 12:04:46;;;;;;;31.83;18.15;;;;;;;;;;5044647;28;20013;-71
2022/03/18 12:07:15;;;;;;;35.90;18.83;;;;;;;;;;5042327;28;20095;-71
2022/03/18 12:09:57;;;;;;;27.00;17.38;;;;;;;;;;5040960;28;20033;-70
2022/03/18 12:12:40;;;;;;;30.52;19.67;;;;;;;;;;5042348;28;20064;-71
2022/03/18 12:15:09;;;;;;;28.33;18.70;;;;;;;;;;5040791;28;20083;-71
2022/03/18 12:17:41;;;;;;;29.00;19.52;;;;;;;;;;5043204;28;20498;-71
2022/03/18 12:20:08;;;;;;;37.78;19.30;;;;;;;;;;5045294;28;20025;-71
2022/03/18 12:22:37;;;;;;;30.63;18.98;;;;;;;;;;5041294;28;20047;-71
2022/03/18 12:25:02;;;;;;;31.40;20.73;;;;;;;;;;5043259;28;20086;-71
2022/03/18 12:27:29;;;;;;;28.80;19.83;;;;;;;;;;5024478;28;20511;-71
2022/03/18 12:29:58;;;;;;;27.42;19.90;;;;;;;;;;5042863;28;20035;-71
2022/03/18 12:32:24;;;;;;;28.55;19.58;;;;;;;;;;5024639;28;20134;-71
2022/03/18 12:34:50;;;;;;;32.08;19.63;;;;;;;;;;5023733;28;20124;-70
2022/03/18 12:37:20;;;;;;;32.22;19.95;;;;;;;;;;5037872;28;20021;-71
2022/03/18 12:39:46;;;;;;;31.48;19.02;;;;;;;;;;5045882;28;20052;-73
2022/03/18 12:42:12;;;;;;;35.85;18.23;;;;;;;;;;5041366;28;20111;-72
2022/03/18 12:44:37;;;;;;;30.90;18.90;;;;;;;;;;5043191;28;20391;-74
2022/03/18 12:47:05;;;;;;;28.20;18.08;;;;;;;;;;5024965;28;20021;-71
2022/03/18 12:49:32;;;;;;;26.88;18.92;;;;;;;;;;5041513;28;20498;-72
2022/03/18 12:51:57;;;;;;;29.80;18.90;;;;;;;;;;5041213;28;20510;-72
2022/03/18 12:54:22;;;;;;;34.58;19.67;;;;;;;;;;5041814;28;20059;-72
2022/03/18 12:56:48;;;;;;;35.60;19.55;;;;;;;;;;5042258;28;20056;-72
2022/03/18 12:59:15;;;;;;;27.58;19.17;;;;;;;;;;5040170;28;20029;-72
2022/03/18 13:01:53;;;;;;;27.58;19.90;;;;;;;;;;5038939;28;20124;-70
2022/03/18 13:04:22;;;;;;;32.05;19.05;;;;;;;;;;5041891;28;20040;-72
2022/03/18 13:06:57;;;;;;;34.20;19.95;;;;;;;;;;5044656;28;20380;-72
2022/03/18 13:09:22;;;;;;;28.20;19.10;;;;;;;;;;5042883;28;20384;-72
2022/03/18 13:11:48;;;;;;;35.55;19.55;;;;;;;;;;5040281;28;20032;-72
2022/03/18 13:14:13;;;;;;;27.88;18.95;;;;;;;;;;5038296;28;20025;-72
2022/03/18 13:16:42;;;;;;;39.60;19.58;;;;;;;;;;5043528;28;20295;-73
2022/03/18 13:19:08;;;;;;;26.35;19.00;;;;;;;;;;5042013;28;20027;-72
2022/03/18 13:21:44;;;;;;;27.25;19.30;;;;;;;;;;5042582;28;20030;-72
2022/03/18 13:24:12;;;;;;;26.95;18.10;;;;;;;;;;5039584;28;20024;-73
2022/03/18 13:26:37;;;;;;;26.95;18.58;;;;;;;;;;5026178;28;20518;-71
2022/03/18 13:29:02;;;;;;;26.85;18.25;;;;;;;;;;5022621;28;20060;-72
2022/03/18 13:34:12;;;;;;;28.15;17.90;;;;;;;;;;5039935;28;20043;-72
2022/03/18 13:36:37;;;;;;;25.13;18.02;;;;;;;;;;5041445;28;20032;-71
2022/03/18 13:39:18;;;;;;;28.15;18.45;;;;;;;;;;5041927;28;20302;-71
2022/03/18 13:41:51;;;;;;;28.40;18.63;;;;;;;;;;5024468;28;20028;-72
2022/03/18 13:44:17;;;;;;;34.27;19.23;;;;;;;;;;5041842;28;20025;-72
2022/03/18 13:47:05;;;;;;;30.45;18.52;;;;;;;;;;5041651;28;20487;-71
2022/03/18 13:49:31;;;;;;;24.42;16.70;;;;;;;;;;5040756;28;20024;-72
2022/03/18 13:52:04;;;;;;;29.48;17.95;;;;;;;;;;5039801;28;20079;-72
2022/03/18 13:54:47;;;;;;;25.50;17.65;;;;;;;;;;5039603;28;20037;-71
2022/03/18 13:57:12;;;;;;;23.27;17.00;;;;;;;;;;5040900;28;20028;-72
2022/03/18 13:59:48;;;;;;;24.38;17.55;;;;;;;;;;5039930;28;20056;-72
2022/03/18 14:02:29;;;;;;;23.40;17.45;;;;;;;;;;5040350;28;20052;-72
2022/03/18 14:04:55;;;;;;;23.13;17.63;;;;;;;;;;5041320;28;20099;-72
2022/03/18 14:07:21;;;;;;;27.25;17.60;;;;;;;;;;5042139;28;20378;-71
2022/03/18 14:09:54;;;;;;;22.70;17.85;;;;;;;;;;5041692;28;20036;-71
2022/03/18 14:12:19;;;;;;;22.92;17.63;;;;;;;;;;5040680;28;20033;-71
2022/03/18 14:14:44;;;;;;;24.75;17.88;;;;;;;;;;5037895;28;20040;-71
2022/03/18 14:17:20;;;;;;;29.30;17.85;;;;;;;;;;5039293;28;20025;-71
2022/03/18 14:19:57;;;;;;;25.10;17.58;;;;;;;;;;5038855;28;20043;-70
2022/03/18 14:22:43;;;;;;;23.50;17.25;;;;;;;;;;5040215;28;20043;-71
2022/03/18 14:25:11;;;;;;;24.58;16.52;;;;;;;;;;5041301;28;20040;-71
2022/03/18 14:27:37;;;;;;;25.15;17.30;;;;;;;;;;5036474;28;20029;-72
2022/03/18 14:30:11;;;;;;;24.77;17.20;;;;;;;;;;5039084;28;20454;-71
2022/03/18 14:32:36;;;;;;;24.63;17.30;;;;;;;;;;5040107;28;20057;-70
2022/03/18 14:35:02;;;;;;;23.95;18.20;;;;;;;;;;5040455;28;20394;-71
2022/03/18 14:37:31;;;;;;;76.43;18.40;;;;;;;;;;5037953;28;20028;-72
2022/03/18 14:39:58;;;;;;;24.00;17.77;;;;;;;;;;5043382;28;20025;-71
2022/03/18 14:42:23;;;;;;;26.00;17.00;;;;;;;;;;5040648;28;20033;-71
2022/03/18 14:44:48;;;;;;;23.60;16.73;;;;;;;;;;5042340;28;20114;-72